JEC5830 SKRG-MDPC
Flight info
| Callsign | JEC5830 |
|---|---|
| Flight time | N/A |
| Altitude | 37000 |
| Route | BIVIG1B BIVIG UW3 BAQ UW5 SATMI UM525 VESKA VESKA1W |
| Aircraft | A20N/M-SDE2E3FGHIRWXY/LB1 |
Departure
| Time | 2026-04-26 18:45 |
|---|---|
| Airport | Jose Maria Córdova International Airport (SKRG) |
Arrival
| Time | N/A |
|---|---|
| Airport | Punta Cana International Airport (MDPC) |
| Time | Latitude | Longitude | Altitude | Speed | Heading |
|---|---|---|---|---|---|
| 2026-04-26 17:56 | 6.17198 | -75.42690 | 7032 ft | 0 kts | 250° |
| 2026-04-26 18:29 | 6.17201 | -75.42681 | 7032 ft | 2 kts | 249° |
| 2026-04-26 18:29 | 6.17206 | -75.42667 | 7032 ft | 2 kts | 250° |
| 2026-04-26 18:29 | 6.17212 | -75.42653 | 7032 ft | 1 kts | 250° |
| 2026-04-26 18:29 | 6.17213 | -75.42649 | 7032 ft | 2 kts | 250° |
| 2026-04-26 18:30 | 6.17220 | -75.42635 | 7032 ft | 2 kts | 229° |
| 2026-04-26 18:30 | 6.17235 | -75.42622 | 7032 ft | 2 kts | 208° |
| 2026-04-26 18:30 | 6.17249 | -75.42617 | 7032 ft | 2 kts | 192° |
| 2026-04-26 18:30 | 6.17259 | -75.42615 | 7032 ft | 0 kts | 181° |
| 2026-04-26 18:31 | 6.17264 | -75.42615 | 7032 ft | 1 kts | 178° |
| 2026-04-26 18:31 | 6.17265 | -75.42615 | 7032 ft | 0 kts | 178° |
| 2026-04-26 18:33 | 6.17250 | -75.42616 | 7032 ft | 4 kts | 184° |
| 2026-04-26 18:33 | 6.17208 | -75.42618 | 7032 ft | 7 kts | 181° |
| 2026-04-26 18:33 | 6.17140 | -75.42618 | 7032 ft | 11 kts | 179° |
| 2026-04-26 18:34 | 6.17059 | -75.42602 | 7032 ft | 13 kts | 153° |
| 2026-04-26 18:34 | 6.16969 | -75.42550 | 7032 ft | 16 kts | 150° |
| 2026-04-26 18:34 | 6.16899 | -75.42509 | 7032 ft | 18 kts | 150° |
| 2026-04-26 18:34 | 6.16732 | -75.42483 | 7032 ft | 19 kts | 179° |
| 2026-04-26 18:35 | 6.16596 | -75.42481 | 7032 ft | 19 kts | 179° |
| 2026-04-26 18:35 | 6.16457 | -75.42480 | 7032 ft | 20 kts | 180° |
| 2026-04-26 18:35 | 6.16363 | -75.42480 | 7032 ft | 20 kts | 179° |
| 2026-04-26 18:35 | 6.16170 | -75.42477 | 7032 ft | 21 kts | 179° |
| 2026-04-26 18:36 | 6.16023 | -75.42477 | 7032 ft | 21 kts | 179° |
| 2026-04-26 18:36 | 6.15924 | -75.42476 | 7032 ft | 21 kts | 179° |
| 2026-04-26 18:36 | 6.15773 | -75.42475 | 7032 ft | 21 kts | 179° |
| 2026-04-26 18:36 | 6.15570 | -75.42474 | 7032 ft | 22 kts | 180° |
| 2026-04-26 18:37 | 6.15468 | -75.42474 | 7032 ft | 21 kts | 179° |
| 2026-04-26 18:37 | 6.15324 | -75.42472 | 7032 ft | 20 kts | 179° |
| 2026-04-26 18:37 | 6.15145 | -75.42472 | 7032 ft | 18 kts | 179° |
| 2026-04-26 18:37 | 6.15020 | -75.42471 | 7032 ft | 17 kts | 180° |
| 2026-04-26 18:38 | 6.14958 | -75.42460 | 7032 ft | 11 kts | 142° |
| 2026-04-26 18:38 | 6.14940 | -75.42418 | 7032 ft | 0 kts | 90° |
| 2026-04-26 18:42 | 6.14940 | -75.42416 | 7032 ft | 1 kts | 90° |
| 2026-04-26 18:42 | 6.14939 | -75.42403 | 7032 ft | 4 kts | 90° |
| 2026-04-26 18:42 | 6.14939 | -75.42358 | 7032 ft | 8 kts | 90° |
| 2026-04-26 18:42 | 6.14982 | -75.42298 | 7032 ft | 9 kts | 358° |
| 2026-04-26 18:43 | 6.15023 | -75.42301 | 7032 ft | 0 kts | 359° |
| 2026-04-26 18:44 | 6.15026 | -75.42301 | 7032 ft | 3 kts | 359° |
| 2026-04-26 18:44 | 6.15204 | -75.42303 | 7032 ft | 58 kts | 359° |
| 2026-04-26 18:45 | 6.15830 | -75.42308 | 7033 ft | 121 kts | 0° |
| 2026-04-26 18:45 | 6.16864 | -75.42315 | 7033 ft | 175 kts | 359° |
| 2026-04-26 18:45 | 6.17733 | -75.42322 | 7173 ft | 192 kts | 359° |
| 2026-04-26 18:45 | 6.19467 | -75.42317 | 8072 ft | 190 kts | 0° |
| 2026-04-26 18:46 | 6.20793 | -75.42284 | 8742 ft | 192 kts | 8° |
| 2026-04-26 18:46 | 6.21647 | -75.42020 | 9061 ft | 199 kts | 31° |
| 2026-04-26 18:46 | 6.22745 | -75.40497 | 9563 ft | 221 kts | 81° |
| 2026-04-26 18:46 | 6.22727 | -75.38892 | 10008 ft | 237 kts | 94° |
| 2026-04-26 18:47 | 6.22762 | -75.37789 | 10290 ft | 248 kts | 79° |
| 2026-04-26 18:47 | 6.23622 | -75.35540 | 10678 ft | 271 kts | 62° |
| 2026-04-26 18:47 | 6.24538 | -75.33818 | 10987 ft | 287 kts | 62° |
| 2026-04-26 18:47 | 6.25495 | -75.31998 | 11289 ft | 304 kts | 63° |
| 2026-04-26 18:48 | 6.26154 | -75.30706 | 11503 ft | 314 kts | 63° |
| 2026-04-26 18:48 | 6.27146 | -75.28713 | 12029 ft | 322 kts | 63° |
| 2026-04-26 18:48 | 6.28625 | -75.26137 | 12888 ft | 326 kts | 47° |
| 2026-04-26 18:48 | 6.29765 | -75.25137 | 13299 ft | 328 kts | 31° |
| 2026-04-26 18:49 | 6.31883 | -75.24318 | 13937 ft | 330 kts | 8° |
| 2026-04-26 18:49 | 6.34175 | -75.24216 | 14594 ft | 332 kts | 359° |
| 2026-04-26 18:49 | 6.36505 | -75.24248 | 15194 ft | 336 kts | 359° |
| 2026-04-26 18:49 | 6.38855 | -75.24281 | 15790 ft | 339 kts | 359° |
| 2026-04-26 18:50 | 6.41980 | -75.24303 | 16584 ft | 343 kts | 360° |
| 2026-04-26 18:50 | 6.43600 | -75.24308 | 16984 ft | 345 kts | 360° |
| 2026-04-26 18:50 | 6.45979 | -75.24276 | 17551 ft | 348 kts | 2° |
| 2026-04-26 18:50 | 6.48400 | -75.24104 | 18114 ft | 351 kts | 5° |
| 2026-04-26 18:51 | 6.51672 | -75.23816 | 18849 ft | 355 kts | 5° |
| 2026-04-26 18:51 | 6.54123 | -75.23598 | 19378 ft | 358 kts | 5° |
| 2026-04-26 18:51 | 6.55767 | -75.23453 | 19726 ft | 360 kts | 5° |
| 2026-04-26 18:51 | 6.59125 | -75.23159 | 20423 ft | 364 kts | 5° |
| 2026-04-26 18:52 | 6.61643 | -75.22940 | 20934 ft | 367 kts | 5° |
| 2026-04-26 18:52 | 6.63316 | -75.22795 | 21267 ft | 369 kts | 5° |
| 2026-04-26 18:52 | 6.65873 | -75.22574 | 21766 ft | 372 kts | 5° |
| 2026-04-26 18:52 | 6.68450 | -75.22351 | 22258 ft | 374 kts | 5° |
| 2026-04-26 18:53 | 6.71063 | -75.22126 | 22745 ft | 377 kts | 5° |
| 2026-04-26 18:53 | 6.73651 | -75.21903 | 23215 ft | 380 kts | 5° |
| 2026-04-26 18:53 | 6.76286 | -75.21675 | 23683 ft | 383 kts | 5° |
| 2026-04-26 18:53 | 6.78946 | -75.21446 | 24140 ft | 385 kts | 5° |
| 2026-04-26 18:54 | 6.82532 | -75.21137 | 24731 ft | 389 kts | 5° |
| 2026-04-26 18:54 | 6.84307 | -75.20985 | 25016 ft | 391 kts | 5° |
| 2026-04-26 18:54 | 6.87909 | -75.20675 | 25577 ft | 394 kts | 5° |
| 2026-04-26 18:54 | 6.89731 | -75.20519 | 25852 ft | 396 kts | 5° |
| 2026-04-26 18:55 | 6.92469 | -75.20284 | 26256 ft | 398 kts | 5° |
| 2026-04-26 18:55 | 6.96182 | -75.19965 | 26785 ft | 402 kts | 5° |
| 2026-04-26 18:55 | 6.98965 | -75.19725 | 27167 ft | 404 kts | 5° |
| 2026-04-26 18:55 | 7.01744 | -75.19468 | 27532 ft | 406 kts | 6° |
| 2026-04-26 18:56 | 7.04550 | -75.19083 | 27887 ft | 409 kts | 8° |
| 2026-04-26 18:56 | 7.06422 | -75.18800 | 28117 ft | 410 kts | 8° |
| 2026-04-26 18:56 | 7.09250 | -75.18366 | 28454 ft | 412 kts | 8° |
| 2026-04-26 18:56 | 7.13042 | -75.17786 | 28877 ft | 415 kts | 8° |
| 2026-04-26 18:57 | 7.15899 | -75.17351 | 29181 ft | 417 kts | 8° |
| 2026-04-26 18:57 | 7.16854 | -75.17207 | 29279 ft | 418 kts | 8° |
| 2026-04-26 18:57 | 7.21646 | -75.16481 | 29756 ft | 421 kts | 8° |
| 2026-04-26 18:57 | 7.24517 | -75.16047 | 30026 ft | 423 kts | 8° |
| 2026-04-26 18:58 | 7.27411 | -75.15608 | 30287 ft | 425 kts | 8° |
| 2026-04-26 18:58 | 7.30346 | -75.15163 | 30542 ft | 426 kts | 8° |
| 2026-04-26 18:58 | 7.32283 | -75.14871 | 30704 ft | 427 kts | 8° |
| 2026-04-26 18:58 | 7.36209 | -75.14276 | 31021 ft | 430 kts | 8° |
| 2026-04-26 18:59 | 7.38180 | -75.13977 | 31174 ft | 431 kts | 8° |
| 2026-04-26 18:59 | 7.41129 | -75.13531 | 31396 ft | 432 kts | 8° |
| 2026-04-26 18:59 | 7.45096 | -75.12930 | 31688 ft | 434 kts | 8° |
| 2026-04-26 18:59 | 7.48058 | -75.12482 | 31894 ft | 436 kts | 8° |
| 2026-04-26 19:00 | 7.50082 | -75.12175 | 32031 ft | 437 kts | 8° |
| 2026-04-26 19:00 | 7.54061 | -75.11573 | 32295 ft | 438 kts | 8° |
| 2026-04-26 19:00 | 7.57062 | -75.11119 | 32487 ft | 440 kts | 8° |
| 2026-04-26 19:00 | 7.59104 | -75.10811 | 32631 ft | 440 kts | 8° |
| 2026-04-26 19:01 | 7.63100 | -75.10207 | 32977 ft | 439 kts | 8° |
| 2026-04-26 19:01 | 7.65103 | -75.09905 | 33153 ft | 439 kts | 8° |
| 2026-04-26 19:01 | 7.68121 | -75.09448 | 33407 ft | 438 kts | 8° |
| 2026-04-26 19:01 | 7.72102 | -75.08844 | 33722 ft | 437 kts | 8° |
| 2026-04-26 19:02 | 7.74105 | -75.08535 | 33876 ft | 437 kts | 8° |
| 2026-04-26 19:02 | 7.77100 | -75.08068 | 34102 ft | 436 kts | 8° |
| 2026-04-26 19:02 | 7.80062 | -75.07607 | 34321 ft | 436 kts | 8° |
| 2026-04-26 19:02 | 7.82090 | -75.07293 | 34468 ft | 436 kts | 8° |
| 2026-04-26 19:03 | 7.86038 | -75.06682 | 34746 ft | 435 kts | 8° |
| 2026-04-26 19:03 | 7.90003 | -75.06070 | 35017 ft | 435 kts | 8° |
| 2026-04-26 19:03 | 7.91991 | -75.05763 | 35149 ft | 434 kts | 8° |
| 2026-04-26 19:03 | 7.95991 | -75.05147 | 35406 ft | 434 kts | 8° |
| 2026-04-26 19:04 | 7.97970 | -75.04842 | 35530 ft | 433 kts | 8° |
| 2026-04-26 19:04 | 8.01924 | -75.04233 | 35768 ft | 433 kts | 8° |
| 2026-04-26 19:04 | 8.04890 | -75.03776 | 35939 ft | 433 kts | 8° |
| 2026-04-26 19:04 | 8.06861 | -75.03472 | 36049 ft | 432 kts | 8° |
| 2026-04-26 19:05 | 8.13782 | -75.02407 | 36413 ft | 432 kts | 8° |
| 2026-04-26 19:05 | 8.15756 | -75.02104 | 36508 ft | 432 kts | 8° |
| 2026-04-26 19:05 | 8.19671 | -75.01503 | 36688 ft | 432 kts | 8° |
| 2026-04-26 19:06 | 8.22651 | -75.01045 | 36819 ft | 432 kts | 8° |
| 2026-04-26 19:06 | 8.25611 | -75.00589 | 36936 ft | 432 kts | 8° |
| 2026-04-26 19:06 | 8.27576 | -75.00286 | 36982 ft | 433 kts | 8° |
| 2026-04-26 19:07 | 8.33522 | -74.99369 | 36989 ft | 437 kts | 8° |
| 2026-04-26 19:07 | 8.40558 | -74.98283 | 36992 ft | 443 kts | 8° |
| 2026-04-26 19:08 | 8.46675 | -74.97339 | 36993 ft | 448 kts | 8° |
| 2026-04-26 19:08 | 8.51778 | -74.96550 | 36993 ft | 451 kts | 8° |
| 2026-04-26 19:09 | 8.59027 | -74.95430 | 36993 ft | 455 kts | 8° |
| 2026-04-26 19:09 | 8.64224 | -74.94627 | 36992 ft | 456 kts | 8° |
| 2026-04-26 19:10 | 8.68149 | -74.94023 | 36987 ft | 456 kts | 9° |
| 2026-04-26 19:10 | 8.74397 | -74.93060 | 36929 ft | 457 kts | 9° |
| 2026-04-26 19:11 | 8.80665 | -74.92089 | 36884 ft | 457 kts | 9° |
| 2026-04-26 19:11 | 8.87992 | -74.90955 | 36860 ft | 457 kts | 9° |
| 2026-04-26 19:12 | 8.94230 | -74.89990 | 36851 ft | 457 kts | 9° |
| 2026-04-26 19:12 | 9.00481 | -74.89023 | 36848 ft | 457 kts | 9° |
| 2026-04-26 19:13 | 9.05744 | -74.88209 | 36847 ft | 457 kts | 9° |
| 2026-04-26 19:13 | 9.11994 | -74.87243 | 36846 ft | 458 kts | 9° |
| 2026-04-26 19:14 | 9.19319 | -74.86116 | 36847 ft | 458 kts | 9° |
| 2026-04-26 19:14 | 9.24562 | -74.85307 | 36846 ft | 458 kts | 9° |
| 2026-04-26 19:15 | 9.30925 | -74.84715 | 36846 ft | 459 kts | 2° |
| 2026-04-26 19:15 | 9.34078 | -74.84680 | 36847 ft | 459 kts | 0° |